Time;durP1;ratioP1;P1;durP2;ratioP2;P2;SDS_P1;SDS_P2;PMS_P1;PMS_P2;Temp;Humidity;BMP_temperature;BMP_pressure;BME280_temperature;BME280_humidity;BME280_pressure;Samples;Min_cycle;Max_cycle;Signal;HPM_P1;HPM_P2
2022/01/07 00:01:32;;;;;;;17.30;4.20;;;4.50;92.30;;;;;;5093914;28;20544;-79
2022/01/07 00:03:58;;;;;;;14.40;4.50;;;4.50;92.20;;;;;;5093561;28;20026;-79
2022/01/07 00:06:23;;;;;;;16.80;5.27;;;4.40;92.20;;;;;;5093508;28;20106;-79
2022/01/07 00:08:50;;;;;;;19.67;4.47;;;4.30;92.10;;;;;;5110407;28;20020;-79
2022/01/07 00:11:16;;;;;;;13.77;4.93;;;4.50;92.10;;;;;;5093444;28;20058;-79
2022/01/07 00:13:42;;;;;;;16.57;4.50;;;4.50;92.10;;;;;;5094553;28;20434;-79
2022/01/07 00:16:07;;;;;;;12.77;4.70;;;4.50;92.10;;;;;;5060199;28;20028;-77
2022/01/07 00:18:33;;;;;;;15.30;4.43;;;4.50;92.10;;;;;;5110342;28;20130;-79
2022/01/07 00:20:59;;;;;;;15.67;4.77;;;4.60;92.20;;;;;;5093205;28;20119;-79
2022/01/07 00:23:25;;;;;;;15.57;4.93;;;4.50;92.10;;;;;;5093197;28;20027;-79
2022/01/07 00:25:51;;;;;;;14.53;4.50;;;4.60;92.10;;;;;;5110201;28;20021;-79
2022/01/07 00:28:18;;;;;;;18.47;4.43;;;4.50;92.00;;;;;;5093176;28;20081;-80
2022/01/07 00:30:44;;;;;;;16.33;4.23;;;4.50;92.10;;;;;;5109828;28;20067;-81
2022/01/07 00:33:09;;;;;;;12.70;4.27;;;4.50;92.10;;;;;;5092987;28;20024;-81
2022/01/07 00:35:35;;;;;;;13.87;4.57;;;4.60;92.10;;;;;;5059560;28;20028;-80
2022/01/07 00:38:02;;;;;;;19.40;4.90;;;4.50;92.10;;;;;;5093343;28;20469;-81
2022/01/07 00:40:27;;;;;;;12.43;4.00;;;4.50;92.80;;;;;;5109810;28;20157;-79
2022/01/07 00:42:54;;;;;;;17.23;5.20;;;4.40;92.80;;;;;;5076193;28;20107;-80
2022/01/07 00:45:21;;;;;;;14.93;4.73;;;4.40;93.00;;;;;;5092854;28;20038;-79
2022/01/07 00:47:47;;;;;;;14.03;4.73;;;4.40;93.30;;;;;;5109633;28;20150;-79
2022/01/07 00:50:15;;;;;;;16.27;4.60;;;4.30;93.40;;;;;;5055907;28;1103069;-80
2022/01/07 00:52:41;;;;;;;12.37;4.73;;;4.30;93.60;;;;;;5093649;28;20472;-79
2022/01/07 00:55:08;;;;;;;13.73;4.57;;;4.20;93.90;;;;;;5093709;28;20043;-78
2022/01/07 00:57:34;;;;;;;15.70;4.53;;;4.20;94.30;;;;;;5109870;28;20024;-81
2022/01/07 01:00:00;;;;;;;11.00;4.43;;;4.20;94.60;;;;;;5110627;28;20036;-79
2022/01/07 01:02:26;;;;;;;12.23;4.80;;;4.10;94.80;;;;;;5093469;28;20028;-80
2022/01/07 01:04:51;;;;;;;14.40;4.83;;;4.10;95.20;;;;;;5075998;28;20039;-79
2022/01/07 01:07:17;;;;;;;17.17;5.10;;;4.00;95.50;;;;;;5110345;28;20035;-79
2022/01/07 01:09:43;;;;;;;14.27;4.67;;;4.00;95.90;;;;;;5094732;28;20028;-79
2022/01/07 01:12:10;;;;;;;12.30;4.43;;;4.00;96.20;;;;;;5094488;28;20468;-76
2022/01/07 01:14:39;;;;;;;15.50;5.30;;;3.90;96.40;;;;;;5094493;28;20032;-82
2022/01/07 01:17:05;;;;;;;17.30;6.63;;;3.90;96.60;;;;;;5093300;28;20042;-79
2022/01/07 01:19:31;;;;;;;13.83;5.60;;;3.80;96.90;;;;;;5094586;28;20468;-79
2022/01/07 01:21:57;;;;;;;16.20;5.60;;;3.80;97.20;;;;;;5093484;28;20081;-79
2022/01/07 01:24:23;;;;;;;17.87;5.80;;;3.70;97.60;;;;;;5059504;28;20031;-79
2022/01/07 01:26:49;;;;;;;19.23;6.57;;;3.70;97.80;;;;;;5093064;28;20487;-79
2022/01/07 01:29:15;;;;;;;16.90;6.30;;;3.60;98.00;;;;;;5109928;28;20016;-78
2022/01/07 01:31:40;;;;;;;17.70;5.97;;;3.60;98.30;;;;;;5092804;28;20021;-78
2022/01/07 01:34:06;;;;;;;23.80;6.50;;;3.50;98.80;;;;;;5093138;28;20032;-78
2022/01/07 01:36:32;;;;;;;17.57;6.67;;;3.50;98.70;;;;;;5094260;28;20028;-79
2022/01/07 01:38:59;;;;;;;18.67;7.73;;;3.40;99.00;;;;;;5094073;28;20084;-78
2022/01/07 01:41:25;;;;;;;14.13;5.60;;;3.40;99.00;;;;;;5109897;28;20065;-78
2022/01/07 01:43:51;;;;;;;18.90;6.23;;;3.40;99.10;;;;;;5093087;28;20024;-79
2022/01/07 01:46:17;;;;;;;17.67;5.77;;;3.40;99.30;;;;;;5092751;28;20050;-79
2022/01/07 01:48:44;;;;;;;11.13;4.53;;;3.40;99.60;;;;;;5092599;28;20039;-78
2022/01/07 01:51:10;;;;;;;14.63;6.57;;;3.50;99.40;;;;;;5093328;28;20032;-78
2022/01/07 01:53:35;;;;;;;15.97;6.20;;;3.40;99.40;;;;;;5092781;28;20498;-75
2022/01/07 01:56:01;;;;;;;13.77;5.30;;;3.40;99.50;;;;;;5092998;28;20542;-78
2022/01/07 01:58:27;;;;;;;13.37;5.67;;;3.40;99.40;;;;;;5092302;28;20024;-75
2022/01/07 02:00:52;;;;;;;9.30;5.10;;;3.40;99.40;;;;;;5093586;28;20024;-78
2022/01/07 02:03:18;;;;;;;15.33;5.20;;;3.50;99.50;;;;;;5093679;28;20028;-78
2022/01/07 02:05:47;;;;;;;16.30;5.43;;;3.50;99.70;;;;;;5092711;28;20028;-78
2022/01/07 02:08:13;;;;;;;16.90;5.57;;;3.50;99.40;;;;;;5092568;28;20032;-78
2022/01/07 02:10:39;;;;;;;14.63;5.30;;;3.50;99.40;;;;;;5092209;28;20055;-76
2022/01/07 02:13:05;;;;;;;15.97;6.03;;;3.50;99.40;;;;;;5093642;28;20035;-77
2022/01/07 02:15:30;;;;;;;14.80;5.90;;;3.50;99.40;;;;;;5092291;28;20123;-76
2022/01/07 02:17:57;;;;;;;19.07;5.77;;;3.50;99.40;;;;;;5093441;28;20038;-77
2022/01/07 02:20:25;;;;;;;10.60;4.87;;;3.50;99.40;;;;;;5093712;28;20020;-79
2022/01/07 02:22:52;;;;;;;13.83;5.20;;;3.50;99.40;;;;;;5092115;28;20016;-77
2022/01/07 02:25:21;;;;;;;12.60;4.83;;;3.50;99.30;;;;;;5093256;28;20060;-76
2022/01/07 02:27:47;;;;;;;17.33;5.30;;;3.60;99.40;;;;;;5093395;28;20119;-78
2022/01/07 02:30:17;;;;;;;16.40;5.90;;;3.60;99.40;;;;;;5109314;28;20032;-76
2022/01/07 02:32:44;;;;;;;10.90;4.77;;;3.60;99.30;;;;;;5093330;28;20114;-76
2022/01/07 02:35:10;;;;;;;14.47;4.60;;;3.60;99.30;;;;;;5093275;28;20481;-77
2022/01/07 02:37:36;;;;;;;12.93;4.67;;;3.60;99.20;;;;;;5108970;28;20388;-76
2022/01/07 02:40:07;;;;;;;11.53;4.80;;;3.70;99.20;;;;;;5092532;28;20036;-77
2022/01/07 02:42:32;;;;;;;11.30;5.07;;;3.60;99.10;;;;;;5093415;28;20028;-77
2022/01/07 02:44:58;;;;;;;14.00;4.80;;;3.70;99.00;;;;;;5092006;28;20415;-77
2022/01/07 02:47:27;;;;;;;18.70;6.30;;;3.70;99.10;;;;;;5091897;28;20028;-76
2022/01/07 02:49:53;;;;;;;17.70;4.47;;;3.70;99.00;;;;;;5076029;28;20109;-76
2022/01/07 02:52:18;;;;;;;13.27;4.77;;;3.70;98.90;;;;;;5092342;28;20032;-78
2022/01/07 02:54:44;;;;;;;16.27;4.80;;;3.70;98.90;;;;;;5092045;28;20128;-76
2022/01/07 02:57:10;;;;;;;15.83;4.90;;;3.70;99.00;;;;;;5091915;28;20077;-77
2022/01/07 02:59:35;;;;;;;18.00;4.50;;;3.70;99.40;;;;;;5092011;28;20369;-76
2022/01/07 03:02:01;;;;;;;12.80;4.73;;;3.70;99.10;;;;;;5075279;28;20743;-78
2022/01/07 03:04:28;;;;;;;15.37;4.67;;;3.70;99.10;;;;;;5093463;28;20016;-77
2022/01/07 03:06:54;;;;;;;15.43;4.73;;;3.70;99.20;;;;;;5092175;28;20495;-76
2022/01/07 03:09:20;;;;;;;12.80;3.80;;;3.70;99.20;;;;;;5092526;28;20036;-77
2022/01/07 03:11:45;;;;;;;9.90;3.43;;;3.70;99.20;;;;;;5093395;28;20025;-75
2022/01/07 03:14:11;;;;;;;12.90;4.10;;;3.70;99.20;;;;;;5093336;28;20024;-76
2022/01/07 03:16:39;;;;;;;15.30;4.67;;;3.70;99.20;;;;;;5091879;28;20028;-77
2022/01/07 03:19:06;;;;;;;11.73;4.13;;;3.70;99.20;;;;;;5092053;28;20032;-76
2022/01/07 03:21:32;;;;;;;9.03;3.60;;;3.70;99.20;;;;;;5093256;28;20030;-75
2022/01/07 03:23:57;;;;;;;15.13;4.37;;;3.70;99.20;;;;;;5095599;28;20395;-76
2022/01/07 03:26:23;;;;;;;11.47;4.27;;;3.80;99.30;;;;;;5112472;28;20123;-76
2022/01/07 03:28:48;;;;;;;13.97;4.10;;;3.70;99.20;;;;;;5096641;28;20025;-77
2022/01/07 03:31:14;;;;;;;14.53;4.13;;;3.70;99.20;;;;;;5095523;28;20028;-76
2022/01/07 03:33:40;;;;;;;10.00;3.73;;;3.80;99.20;;;;;;5095155;28;20032;-76
2022/01/07 03:36:06;;;;;;;11.50;3.43;;;3.70;99.30;;;;;;5096463;28;20455;-77
2022/01/07 03:38:31;;;;;;;10.70;3.47;;;3.70;99.30;;;;;;5095059;28;20384;-77
2022/01/07 03:40:57;;;;;;;14.30;4.00;;;3.80;99.40;;;;;;5112125;28;20400;-77
2022/01/07 03:43:24;;;;;;;8.23;3.60;;;3.70;99.50;;;;;;5096339;28;20024;-77
2022/01/07 03:45:49;;;;;;;8.27;3.03;;;3.70;99.60;;;;;;5096379;28;20557;-79
2022/01/07 03:48:15;;;;;;;15.73;4.80;;;3.70;99.80;;;;;;5095411;28;20142;-78
2022/01/07 03:50:41;;;;;;;13.10;3.80;;;3.70;99.90;;;;;;5096272;28;20052;-76
2022/01/07 03:53:07;;;;;;;12.07;4.07;;;3.70;99.90;;;;;;5096455;28;20036;-78
2022/01/07 03:55:33;;;;;;;10.77;3.73;;;3.70;99.90;;;;;;5096308;28;20028;-77
2022/01/07 03:57:59;;;;;;;11.47;4.10;;;3.60;99.90;;;;;;5111896;28;20039;-77
2022/01/07 04:00:34;;;;;;;12.10;4.03;;;3.60;99.90;;;;;;5094771;28;20111;-78
2022/01/07 04:03:06;;;;;;;7.07;3.23;;;3.60;99.90;;;;;;5111703;28;20105;-83
2022/01/07 04:05:31;;;;;;;10.80;3.63;;;3.60;99.90;;;;;;5111475;28;20029;-78
2022/01/07 04:07:57;;;;;;;14.00;4.50;;;3.60;99.90;;;;;;5094758;28;20028;-77
2022/01/07 04:10:23;;;;;;;10.10;3.30;;;3.60;99.90;;;;;;5077887;28;20093;-77
2022/01/07 04:12:49;;;;;;;10.83;3.67;;;3.60;99.90;;;;;;5094753;28;20043;-78
2022/01/07 04:15:16;;;;;;;14.83;3.70;;;3.60;99.90;;;;;;5095620;28;20103;-78
2022/01/07 04:17:45;;;;;;;9.87;3.43;;;3.60;99.90;;;;;;5111218;28;20024;-77
2022/01/07 04:20:13;;;;;;;8.90;4.00;;;3.60;99.90;;;;;;5094801;28;20040;-79
2022/01/07 04:22:39;;;;;;;12.60;4.30;;;3.50;99.90;;;;;;5111323;28;20538;-78
2022/01/07 04:25:09;;;;;;;9.63;3.93;;;3.50;99.90;;;;;;5094470;28;20055;-79
2022/01/07 04:27:35;;;;;;;9.17;4.30;;;3.50;99.90;;;;;;5111117;28;20028;-78
2022/01/07 04:30:01;;;;;;;15.83;4.93;;;3.50;99.90;;;;;;5111342;28;20051;-78
2022/01/07 04:32:27;;;;;;;9.43;4.57;;;3.50;99.90;;;;;;5114935;28;20541;-78
2022/01/07 04:34:53;;;;;;;9.07;4.20;;;3.60;99.90;;;;;;5096999;28;20019;-78
2022/01/07 04:37:18;;;;;;;12.80;6.10;;;3.40;99.90;;;;;;5097165;28;20027;-77
2022/01/07 04:39:44;;;;;;;11.80;4.80;;;3.40;99.90;;;;;;5080541;28;20028;-77
2022/01/07 04:42:10;;;;;;;11.47;5.20;;;3.30;99.90;;;;;;5115747;28;20476;-77
2022/01/07 04:44:40;;;;;;;10.00;5.00;;;3.30;99.90;;;;;;5114454;28;20051;-77
2022/01/07 04:47:07;;;;;;;9.87;4.67;;;3.30;99.90;;;;;;5114638;28;20491;-78
2022/01/07 04:49:34;;;;;;;11.23;4.80;;;3.20;99.90;;;;;;5115356;28;20039;-78
2022/01/07 04:51:59;;;;;;;11.17;4.93;;;3.20;99.90;;;;;;5097569;28;20031;-77
2022/01/07 04:54:25;;;;;;;9.33;5.83;;;3.20;99.90;;;;;;5113991;28;20031;-78
2022/01/07 04:56:50;;;;;;;11.50;5.23;;;3.20;99.90;;;;;;5097065;28;20023;-78
2022/01/07 04:59:16;;;;;;;10.43;5.47;;;3.10;99.90;;;;;;5097134;28;20030;-78
2022/01/07 05:01:42;;;;;;;13.17;5.30;;;3.20;99.90;;;;;;5115370;28;20120;-78
2022/01/07 05:04:07;;;;;;;13.37;5.73;;;3.30;99.90;;;;;;5114538;28;20356;-78
2022/01/07 05:06:45;;;;;;;11.53;5.53;;;3.30;99.90;;;;;;5114089;28;20032;-77
2022/01/07 05:09:18;;;;;;;11.60;5.80;;;3.30;99.90;;;;;;5114021;28;20026;-77
2022/01/07 05:11:50;;;;;;;9.07;5.03;;;3.30;99.90;;;;;;5114995;28;20034;-78
2022/01/07 05:14:16;;;;;;;13.03;5.37;;;3.30;99.90;;;;;;5097674;28;20418;-78
2022/01/07 05:16:42;;;;;;;10.27;5.40;;;3.30;99.90;;;;;;5113671;28;20019;-78
2022/01/07 05:19:09;;;;;;;10.27;4.93;;;3.30;99.90;;;;;;5112897;28;20035;-77
2022/01/07 05:21:35;;;;;;;8.87;5.17;;;3.30;99.90;;;;;;5114783;28;20028;-78
2022/01/07 05:24:01;;;;;;;10.23;5.53;;;3.30;99.90;;;;;;5113561;28;20032;-78
2022/01/07 05:26:27;;;;;;;15.07;5.70;;;3.40;99.90;;;;;;5113337;28;20076;-78
2022/01/07 05:28:53;;;;;;;10.67;5.47;;;3.40;99.90;;;;;;5113290;28;20050;-77
2022/01/07 05:31:20;;;;;;;13.87;5.87;;;3.40;99.90;;;;;;5101529;28;20043;-79
2022/01/07 05:33:45;;;;;;;14.83;5.30;;;3.40;99.90;;;;;;5092810;28;20024;-82
2022/01/07 05:36:11;;;;;;;11.67;5.10;;;3.40;99.90;;;;;;5059403;28;20028;-78
2022/01/07 05:38:37;;;;;;;13.00;5.60;;;3.50;99.90;;;;;;5094168;28;20028;-84
2022/01/07 05:41:02;;;;;;;11.33;5.87;;;3.50;99.90;;;;;;5059370;28;20484;-78
2022/01/07 05:43:29;;;;;;;11.20;5.90;;;3.50;99.90;;;;;;5059371;28;20531;-78
2022/01/07 05:45:56;;;;;;;12.60;5.97;;;3.60;99.90;;;;;;5076244;28;20051;-78
2022/01/07 05:48:23;;;;;;;12.07;6.20;;;3.60;99.90;;;;;;5092849;28;20039;-78
2022/01/07 05:50:49;;;;;;;11.90;6.00;;;3.60;99.90;;;;;;5092736;28;20055;-77
2022/01/07 05:53:14;;;;;;;12.63;6.67;;;3.60;99.90;;;;;;5075894;28;20473;-79
2022/01/07 05:55:40;;;;;;;12.30;6.83;;;3.70;99.90;;;;;;5092593;28;20036;-78
2022/01/07 05:58:05;;;;;;;11.27;6.73;;;3.70;99.90;;;;;;5092581;28;20036;-79
2022/01/07 06:00:31;;;;;;;15.00;7.77;;;3.70;99.90;;;;;;5059137;28;20093;-78
2022/01/07 06:02:57;;;;;;;14.03;6.77;;;3.70;99.90;;;;;;5093714;28;20032;-78
2022/01/07 06:05:22;;;;;;;11.53;6.87;;;3.80;99.90;;;;;;5093794;28;20119;-79
2022/01/07 06:07:48;;;;;;;14.83;8.80;;;3.80;99.90;;;;;;5092563;28;20107;-78
2022/01/07 06:10:14;;;;;;;19.27;8.37;;;3.80;99.90;;;;;;5075592;28;20468;-78
2022/01/07 06:12:39;;;;;;;15.03;8.17;;;3.90;99.90;;;;;;5092774;28;20032;-78
2022/01/07 06:15:06;;;;;;;16.87;9.83;;;3.90;99.90;;;;;;5092752;28;20058;-82
2022/01/07 06:17:32;;;;;;;18.83;9.50;;;3.90;99.90;;;;;;5092255;28;20032;-79
2022/01/07 06:19:58;;;;;;;13.40;7.87;;;3.90;99.90;;;;;;5092274;28;20035;-81
2022/01/07 06:22:23;;;;;;;16.73;8.43;;;4.00;99.90;;;;;;5075476;28;20020;-77
2022/01/07 06:24:49;;;;;;;16.27;8.03;;;4.10;99.90;;;;;;5075476;28;20176;-78
2022/01/07 06:27:15;;;;;;;16.83;8.77;;;4.00;99.90;;;;;;5075529;28;20158;-79
2022/01/07 06:29:40;;;;;;;19.47;9.37;;;4.10;99.90;;;;;;5075389;28;20115;-78
2022/01/07 06:32:07;;;;;;;16.53;9.57;;;4.10;99.90;;;;;;5075261;28;20038;-78
2022/01/07 06:34:34;;;;;;;16.87;9.77;;;4.20;99.90;;;;;;5075368;28;20043;-78
2022/01/07 06:37:00;;;;;;;21.53;10.23;;;4.30;99.90;;;;;;5093141;28;20481;-78
2022/01/07 06:39:28;;;;;;;16.83;8.50;;;4.20;99.90;;;;;;5093446;28;20032;-81
2022/01/07 06:41:55;;;;;;;19.40;9.87;;;4.20;99.90;;;;;;5093231;28;20023;-78
2022/01/07 06:44:21;;;;;;;17.73;9.40;;;4.30;99.90;;;;;;5092156;28;20051;-81
2022/01/07 06:46:47;;;;;;;19.77;9.93;;;4.20;99.90;;;;;;5092435;28;20062;-78
2022/01/07 06:49:15;;;;;;;18.10;9.87;;;4.40;99.90;;;;;;5091779;28;20067;-78
2022/01/07 06:51:42;;;;;;;20.93;10.27;;;4.40;99.90;;;;;;5092250;28;20036;-76
2022/01/07 06:54:11;;;;;;;17.33;9.57;;;4.40;99.90;;;;;;5075263;28;20024;-76
2022/01/07 06:56:41;;;;;;;18.97;10.67;;;4.40;99.90;;;;;;5093531;28;20036;-76
2022/01/07 06:59:08;;;;;;;20.50;10.77;;;4.40;99.90;;;;;;5112296;28;20463;-76
2022/01/07 07:01:34;;;;;;;19.37;10.63;;;4.40;99.90;;;;;;5091600;28;20024;-77
2022/01/07 07:04:00;;;;;;;21.90;11.10;;;4.50;99.90;;;;;;5113875;28;20031;-77
2022/01/07 07:06:26;;;;;;;24.17;11.00;;;4.50;99.90;;;;;;5116928;28;20019;-77
2022/01/07 07:08:51;;;;;;;19.10;11.80;;;4.60;99.90;;;;;;5116255;28;20475;-77
2022/01/07 07:11:17;;;;;;;23.40;11.50;;;4.60;99.90;;;;;;5078714;28;20600;-76
2022/01/07 07:13:43;;;;;;;16.80;10.73;;;4.60;99.90;;;;;;5095782;28;20610;-76
2022/01/07 07:16:08;;;;;;;20.87;11.13;;;4.70;99.90;;;;;;5113818;28;20044;-77
2022/01/07 07:18:34;;;;;;;24.73;11.43;;;4.60;99.90;;;;;;5116143;28;20024;-77
2022/01/07 07:21:00;;;;;;;20.87;11.10;;;4.60;99.90;;;;;;5115671;28;20028;-77
2022/01/07 07:23:25;;;;;;;19.83;10.73;;;4.60;99.90;;;;;;5096218;28;20035;-77
2022/01/07 07:25:51;;;;;;;18.37;10.87;;;4.60;99.90;;;;;;5088878;28;20035;-77
2022/01/07 07:28:18;;;;;;;21.97;10.90;;;4.60;99.90;;;;;;5116037;28;20038;-77
2022/01/07 07:30:44;;;;;;;28.03;11.83;;;4.60;99.90;;;;;;5115531;28;20364;-76
2022/01/07 07:38:31;;;;;;;;;;;4.70;99.90;;;;;;5116250;28;20415;-79
2022/01/07 07:40:57;;;;;;;20.07;11.50;;;4.70;99.90;;;;;;5117172;28;19911;-80
2022/01/07 07:43:23;;;;;;;18.40;10.70;;;4.70;99.90;;;;;;5098597;28;20444;-80
2022/01/07 07:45:48;;;;;;;20.63;10.57;;;4.80;99.90;;;;;;5115251;28;20039;-78
2022/01/07 07:48:14;;;;;;;24.63;11.70;;;4.80;99.90;;;;;;5116712;28;20032;-78
2022/01/07 07:50:39;;;;;;;21.43;11.50;;;4.80;99.90;;;;;;5115313;28;20048;-78
2022/01/07 07:53:05;;;;;;;23.43;12.23;;;4.80;99.90;;;;;;5098367;28;20131;-80
2022/01/07 07:55:31;;;;;;;20.80;11.67;;;4.90;99.90;;;;;;5115584;28;20138;-80
2022/01/07 07:57:56;;;;;;;21.33;11.53;;;4.90;99.90;;;;;;5098153;28;20031;-85
2022/01/07 08:00:22;;;;;;;19.80;10.97;;;5.00;99.90;;;;;;5115089;28;20110;-80
2022/01/07 08:02:48;;;;;;;29.53;12.50;;;4.90;99.90;;;;;;5116246;28;20024;-79
2022/01/07 08:05:13;;;;;;;22.93;12.17;;;4.90;99.90;;;;;;5116387;28;20063;-80
2022/01/07 08:07:39;;;;;;;18.50;11.13;;;5.00;99.90;;;;;;5097887;28;20038;-80
2022/01/07 08:10:05;;;;;;;16.93;10.60;;;5.00;99.90;;;;;;5097881;28;20039;-78
2022/01/07 08:12:52;;;;;;;16.47;10.30;;;5.00;99.90;;;;;;5114782;28;20035;-79
2022/01/07 08:18:00;;;;;;;23.58;11.77;;;5.00;99.90;;;;;;5099034;28;20047;-79
2022/01/07 08:20:26;;;;;;;22.57;12.00;;;5.00;99.90;;;;;;5093761;28;20408;-79
2022/01/07 08:22:52;;;;;;;19.33;10.57;;;5.10;99.90;;;;;;5111393;28;20024;-79
2022/01/07 08:25:18;;;;;;;24.30;12.40;;;5.00;99.90;;;;;;5077551;28;20065;-77
2022/01/07 08:27:43;;;;;;;20.83;11.67;;;5.10;99.90;;;;;;5094497;28;20111;-77
2022/01/07 08:30:20;;;;;;;21.40;10.73;;;5.00;99.90;;;;;;5100661;28;20032;-77
2022/01/07 08:35:29;;;;;;;25.08;12.18;;;5.10;99.90;;;;;;5101827;28;20067;-76
2022/01/07 08:37:55;;;;;;;21.03;11.87;;;5.20;99.90;;;;;;5105265;28;20491;-77
2022/01/07 08:40:21;;;;;;;22.37;11.90;;;5.20;99.90;;;;;;5093738;28;20020;-77
2022/01/07 08:42:47;;;;;;;19.43;11.80;;;5.20;99.90;;;;;;5093903;28;20017;-77
2022/01/07 08:45:12;;;;;;;20.43;11.83;;;5.40;99.90;;;;;;5095017;28;20028;-78
2022/01/07 08:47:38;;;;;;;17.97;11.03;;;5.30;99.90;;;;;;5095008;28;20483;-79
2022/01/07 08:50:05;;;;;;;16.07;11.10;;;5.30;99.90;;;;;;5093351;28;20484;-76
2022/01/07 08:52:30;;;;;;;20.93;12.23;;;5.30;99.90;;;;;;5093670;28;20088;-77
2022/01/07 08:54:56;;;;;;;21.27;11.30;;;5.30;99.90;;;;;;5060421;28;20020;-78
2022/01/07 08:57:22;;;;;;;18.53;11.53;;;5.40;99.90;;;;;;5093539;28;20028;-77
2022/01/07 08:59:48;;;;;;;19.23;11.23;;;5.30;99.90;;;;;;5093583;28;20028;-77
2022/01/07 09:02:14;;;;;;;21.90;10.40;;;5.40;99.90;;;;;;5093478;28;20032;-79
2022/01/07 09:04:40;;;;;;;20.53;11.43;;;5.40;99.90;;;;;;5093714;28;20036;-79
2022/01/07 09:07:06;;;;;;;17.10;10.57;;;5.50;99.90;;;;;;5094474;28;20016;-79
2022/01/07 09:09:31;;;;;;;17.00;10.30;;;5.50;99.90;;;;;;5110144;28;20032;-79
2022/01/07 09:11:57;;;;;;;24.33;11.10;;;5.50;99.90;;;;;;5094363;28;20418;-78
2022/01/07 09:14:22;;;;;;;21.53;11.93;;;5.50;99.90;;;;;;5111776;28;20490;-78
2022/01/07 09:16:48;;;;;;;20.13;10.47;;;5.50;99.90;;;;;;5096548;28;20027;-80
2022/01/07 09:19:14;;;;;;;17.27;10.47;;;5.60;99.90;;;;;;5095752;28;20081;-78
2022/01/07 09:21:39;;;;;;;22.93;10.30;;;5.60;99.90;;;;;;5114773;28;20099;-78
2022/01/07 09:24:05;;;;;;;21.33;10.67;;;5.60;99.90;;;;;;5114875;28;20027;-78
2022/01/07 09:26:31;;;;;;;19.10;10.37;;;5.60;99.90;;;;;;5113140;28;20020;-78
2022/01/07 09:28:56;;;;;;;19.83;11.00;;;5.60;99.90;;;;;;5113262;28;20031;-78
2022/01/07 09:31:22;;;;;;;17.30;11.07;;;5.70;99.90;;;;;;5096105;28;20046;-78
2022/01/07 09:33:47;;;;;;;26.37;10.97;;;5.70;99.90;;;;;;5093018;28;20115;-79
2022/01/07 09:36:13;;;;;;;18.90;10.53;;;5.70;99.90;;;;;;5092913;28;20110;-78
2022/01/07 09:38:39;;;;;;;21.83;10.00;;;5.80;99.90;;;;;;5076190;28;20028;-78
2022/01/07 09:41:07;;;;;;;21.77;10.67;;;5.70;99.90;;;;;;5059325;28;20020;-79
2022/01/07 09:43:33;;;;;;;21.10;10.00;;;5.80;99.90;;;;;;5076694;28;20103;-78
2022/01/07 09:45:59;;;;;;;20.67;9.97;;;5.80;99.90;;;;;;5099668;28;20051;-78
2022/01/07 09:48:24;;;;;;;20.87;10.20;;;5.80;99.90;;;;;;5112907;28;20027;-79
2022/01/07 09:50:50;;;;;;;18.53;9.77;;;5.80;99.90;;;;;;5095715;28;20076;-78
2022/01/07 09:53:15;;;;;;;22.00;10.33;;;5.90;99.90;;;;;;5096197;28;20024;-78
2022/01/07 09:55:44;;;;;;;21.27;10.27;;;5.90;99.90;;;;;;5114483;28;20038;-80
2022/01/07 09:58:13;;;;;;;20.07;9.70;;;5.90;99.90;;;;;;5112920;28;20487;-82
2022/01/07 10:00:44;;;;;;;18.87;9.37;;;5.90;99.90;;;;;;5096396;28;20020;-74
2022/01/07 10:03:12;;;;;;;14.50;9.40;;;6.00;99.90;;;;;;5113181;28;20020;-75
2022/01/07 10:05:47;;;;;;;19.07;8.83;;;6.00;99.90;;;;;;5114260;28;20065;-75
2022/01/07 10:08:23;;;;;;;;;;;6.10;99.90;;;;;;5114294;28;20036;-74
2022/01/07 10:11:18;;;;;;;20.47;9.97;;;6.20;99.90;;;;;;5112593;28;20332;-75
2022/01/07 10:13:49;;;;;;;16.80;8.33;;;6.40;99.90;;;;;;5114103;28;20421;-75
2022/01/07 10:16:20;;;;;;;14.30;7.50;;;6.70;99.90;;;;;;5112835;28;20156;-74
2022/01/07 10:18:47;;;;;;;16.50;8.10;;;6.90;99.90;;;;;;5112614;28;20367;-75
2022/01/07 10:21:17;;;;;;;19.70;7.90;;;6.90;99.70;;;;;;5113942;28;20084;-74
2022/01/07 10:23:44;;;;;;;14.20;7.80;;;7.00;99.20;;;;;;5112609;28;20080;-75
2022/01/07 10:26:17;;;;;;;14.97;7.53;;;7.20;99.20;;;;;;5095743;28;20024;-75
2022/01/07 10:28:44;;;;;;;13.93;7.30;;;7.20;98.70;;;;;;5113654;28;20430;-74
2022/01/07 10:31:18;;;;;;;12.27;7.93;;;7.20;98.60;;;;;;5115281;28;20059;-75
2022/01/07 10:33:44;;;;;;;13.35;6.07;;;7.20;98.20;;;;;;5118139;28;20038;-76
2022/01/07 10:36:09;;;;;;;17.00;8.40;;;7.10;98.10;;;;;;5099680;28;20024;-75
2022/01/07 10:38:45;;;;;;;16.43;6.93;;;7.10;97.90;;;;;;5117465;28;20032;-75
2022/01/07 10:41:13;;;;;;;13.03;7.27;;;7.00;97.80;;;;;;5116823;28;20012;-76
2022/01/07 10:43:39;;;;;;;21.33;8.40;;;6.90;97.60;;;;;;5113840;28;20020;-74
2022/01/07 10:46:10;;;;;;;14.17;7.43;;;6.90;97.70;;;;;;5117622;28;20463;-74
2022/01/07 10:48:42;;;;;;;13.67;7.27;;;6.90;97.90;;;;;;5117814;28;20080;-76
2022/01/07 10:51:10;;;;;;;19.20;7.20;;;6.90;97.90;;;;;;5117378;28;20576;-76
2022/01/07 10:53:38;;;;;;;16.33;6.93;;;7.00;97.70;;;;;;5117883;28;20024;-75
2022/01/07 10:56:12;;;;;;;12.00;6.77;;;7.00;97.90;;;;;;5117574;28;20027;-77
2022/01/07 10:58:50;;;;;;;14.13;6.23;;;7.30;98.00;;;;;;5116115;28;20475;-76
2022/01/07 11:01:19;;;;;;;20.63;6.37;;;7.20;97.20;;;;;;5115851;28;20084;-78
2022/01/07 11:03:48;;;;;;;15.07;6.13;;;7.20;97.00;;;;;;5116041;28;20035;-75
2022/01/07 11:06:14;;;;;;;17.90;6.17;;;7.20;97.00;;;;;;5116182;28;20028;-76
2022/01/07 11:08:41;;;;;;;16.40;6.50;;;7.20;97.00;;;;;;5115928;28;20020;-76
2022/01/07 11:11:08;;;;;;;14.03;6.23;;;7.10;96.90;;;;;;5099382;28;20034;-77
2022/01/07 11:13:35;;;;;;;15.87;6.13;;;7.20;96.70;;;;;;5117259;28;20073;-76
2022/01/07 11:16:05;;;;;;;10.73;5.47;;;7.30;97.00;;;;;;5115909;28;20046;-77
2022/01/07 11:18:31;;;;;;;9.63;5.10;;;7.20;96.70;;;;;;5115452;28;20035;-76
2022/01/07 11:20:59;;;;;;;11.97;5.20;;;7.20;96.80;;;;;;5116142;28;20084;-77
2022/01/07 11:23:25;;;;;;;11.00;5.53;;;7.20;96.70;;;;;;5116989;28;20028;-77
2022/01/07 11:26:08;;;;;;;10.53;4.87;;;7.20;96.60;;;;;;5098476;28;20030;-76
2022/01/07 11:28:34;;;;;;;12.00;5.73;;;7.20;96.90;;;;;;5115950;28;20024;-76
2022/01/07 11:31:12;;;;;;;14.40;6.43;;;7.20;96.80;;;;;;5115624;28;20356;-77
2022/01/07 11:33:37;;;;;;;9.60;4.70;;;7.20;96.80;;;;;;5116118;28;20032;-77
2022/01/07 11:36:04;;;;;;;13.70;4.93;;;7.20;96.80;;;;;;5115840;28;20126;-76
2022/01/07 11:38:32;;;;;;;12.77;5.30;;;7.20;96.90;;;;;;5116745;28;20024;-76
2022/01/07 11:40:59;;;;;;;11.43;4.60;;;7.30;97.00;;;;;;5115741;28;20020;-76
2022/01/07 11:43:31;;;;;;;11.13;4.73;;;7.40;96.90;;;;;;5114886;28;20035;-76
2022/01/07 11:45:58;;;;;;;12.43;4.73;;;7.60;97.10;;;;;;5117172;28;20016;-76
2022/01/07 11:48:27;;;;;;;10.10;4.53;;;7.80;97.10;;;;;;5116866;28;20031;-77
2022/01/07 11:50:56;;;;;;;10.43;4.30;;;7.90;96.40;;;;;;5116461;28;20050;-77
2022/01/07 11:53:24;;;;;;;14.73;4.70;;;7.90;96.00;;;;;;5116480;28;20023;-78
2022/01/07 11:55:58;;;;;;;11.13;4.40;;;7.80;95.10;;;;;;5098507;28;20028;-77
2022/01/07 11:58:56;;;;;;;11.63;4.43;;;7.70;94.70;;;;;;5116147;28;20047;-79
2022/01/07 12:01:24;;;;;;;14.93;4.60;;;7.70;95.00;;;;;;5115020;28;20077;-79
2022/01/07 12:03:51;;;;;;;11.40;4.37;;;7.60;94.90;;;;;;5114239;28;20050;-79
2022/01/07 12:06:29;;;;;;;12.93;4.37;;;7.60;95.10;;;;;;5114742;28;20015;-79
2022/01/07 12:09:09;;;;;;;14.67;4.30;;;7.60;94.90;;;;;;5116079;28;20348;-79
2022/01/07 12:11:41;;;;;;;9.23;3.70;;;7.70;94.80;;;;;;5109088;28;20020;-79
2022/01/07 12:14:18;;;;;;;10.90;3.50;;;7.70;94.50;;;;;;5114560;28;20016;-79
2022/01/07 12:16:54;;;;;;;12.13;3.50;;;7.70;94.70;;;;;;5115861;28;20027;-83
2022/01/07 12:19:21;;;;;;;10.43;2.93;;;7.80;94.40;;;;;;5111812;28;20374;-79
2022/01/07 12:21:56;;;;;;;11.30;3.53;;;7.80;94.80;;;;;;5112499;28;20525;-86
2022/01/07 12:24:24;;;;;;;10.73;3.40;;;8.00;94.70;;;;;;5113456;28;20039;-80
2022/01/07 12:27:02;;;;;;;16.63;4.43;;;8.00;94.00;;;;;;5115428;28;20434;-80
2022/01/07 12:29:30;;;;;;;14.90;3.90;;;8.00;93.60;;;;;;5112940;28;20019;-79
2022/01/07 12:31:56;;;;;;;12.93;4.33;;;8.10;93.70;;;;;;5113949;28;20441;-81
2022/01/07 12:34:26;;;;;;;12.23;3.50;;;8.10;93.10;;;;;;5114332;28;20031;-80
2022/01/07 12:36:56;;;;;;;10.57;3.70;;;8.20;93.40;;;;;;5093532;28;20036;-78
2022/01/07 12:39:31;;;;;;;12.57;3.17;;;8.30;93.00;;;;;;5104695;28;20459;-79
2022/01/07 12:41:57;;;;;;;11.97;3.37;;;8.40;93.10;;;;;;5095230;28;20095;-79
2022/01/07 12:44:24;;;;;;;9.27;3.87;;;8.40;92.30;;;;;;5094873;28;20020;-79
2022/01/07 12:46:57;;;;;;;12.03;4.30;;;8.40;92.40;;;;;;5094947;28;20069;-80
2022/01/07 12:49:56;;;;;;;8.33;3.47;;;8.50;92.20;;;;;;5094245;28;20126;-80
2022/01/07 12:52:37;;;;;;;11.20;3.83;;;8.50;91.90;;;;;;5079199;28;20448;-79
2022/01/07 12:55:10;;;;;;;8.10;2.87;;;8.60;92.10;;;;;;5093581;28;20361;-80
2022/01/07 12:57:48;;;;;;;8.13;3.33;;;8.70;92.00;;;;;;5093686;28;20028;-79